NCAR-RAP Real-Time Weather Data

Output produced by METARs form (25 June 2022  05:21 UTC)
found at http://weather.rap.ucar.edu/surface/
 
KFDK 250500Z AUTO 00000KT 10SM CLR 19/18 A3010 RMK AO2
KFDK 250430Z AUTO 13003KT 10SM CLR 20/19 A3010 RMK AO2
KFDK 250420Z AUTO 00000KT 10SM CLR 20/18 A3009 RMK AO2
KFDK 250400Z AUTO 00000KT 10SM CLR 20/19 A3009 RMK AO2
KFDK 250340Z AUTO 00000KT 10SM CLR 21/19 A3009 RMK AO2
KFDK 250320Z AUTO 00000KT 7SM CLR 20/19 A3008 RMK AO2
KFDK 250300Z AUTO 00000KT 10SM CLR 20/20 A3009 RMK AO2
KFDK 250240Z AUTO 00000KT 10SM CLR 21/18 A3008 RMK AO2
KFDK 250220Z AUTO 00000KT 10SM CLR 21/19 A3008 RMK AO2
KFDK 250200Z AUTO 00000KT 10SM CLR 22/19 A3008 RMK AO2
KFDK 242147Z 15004KT 10SM CLR 27/19 A3004
KFDK 242047Z 18004KT 10SM SCT037 SCT043 28/19 A3003
KFDK 241947Z 00000KT 07SM SCT035 28/19 A3004
KFDK 241847Z 15004KT 07SM BKN041 27/19 A3006
KFDK 241747Z 00000KT 07SM BKN033 27/18 A3006